sensor_id;sensor_type;location;lat;lon;timestamp;pressure;altitude;pressure_sealevel;temperature;humidity
21357;BME280;10836;53.068;18.234;2022-09-13T00:01:51;100894.81;;;6.20;100.00
21357;BME280;10836;53.068;18.234;2022-09-13T00:04:18;100890.81;;;6.11;100.00
21357;BME280;10836;53.068;18.234;2022-09-13T00:06:45;100893.81;;;5.97;100.00
21357;BME280;10836;53.068;18.234;2022-09-13T00:09:12;100886.63;;;6.03;100.00
21357;BME280;10836;53.068;18.234;2022-09-13T00:11:39;100882.38;;;5.95;100.00
21357;BME280;10836;53.068;18.234;2022-09-13T00:14:06;100882.38;;;5.95;100.00
21357;BME280;10836;53.068;18.234;2022-09-13T00:16:33;100872.59;;;5.83;100.00
21357;BME280;10836;53.068;18.234;2022-09-13T00:19:00;100866.34;;;5.82;100.00
21357;BME280;10836;53.068;18.234;2022-09-13T00:21:27;100852.34;;;5.74;100.00
21357;BME280;10836;53.068;18.234;2022-09-13T00:23:55;100870.25;;;5.75;100.00
21357;BME280;10836;53.068;18.234;2022-09-13T00:26:25;100860.69;;;5.95;100.00
21357;BME280;10836;53.068;18.234;2022-09-13T00:28:54;100854.94;;;5.92;100.00
21357;BME280;10836;53.068;18.234;2022-09-13T00:31:22;100866.00;;;5.67;100.00
21357;BME280;10836;53.068;18.234;2022-09-13T00:33:50;100866.00;;;5.67;100.00
21357;BME280;10836;53.068;18.234;2022-09-13T00:36:17;100859.16;;;5.76;100.00
21357;BME280;10836;53.068;18.234;2022-09-13T00:38:45;100855.03;;;5.85;100.00
21357;BME280;10836;53.068;18.234;2022-09-13T00:41:16;100854.34;;;6.02;100.00
21357;BME280;10836;53.068;18.234;2022-09-13T00:44:00;100855.38;;;6.00;100.00
21357;BME280;10836;53.068;18.234;2022-09-13T00:46:38;100852.69;;;6.00;100.00
21357;BME280;10836;53.068;18.234;2022-09-13T00:51:52;100855.75;;;5.92;100.00
21357;BME280;10836;53.068;18.234;2022-09-13T00:54:25;100850.75;;;6.13;100.00
21357;BME280;10836;53.068;18.234;2022-09-13T00:56:55;100838.28;;;5.88;100.00
21357;BME280;10836;53.068;18.234;2022-09-13T00:59:35;100838.19;;;5.83;100.00
21357;BME280;10836;53.068;18.234;2022-09-13T01:02:05;100839.38;;;5.76;100.00
21357;BME280;10836;53.068;18.234;2022-09-13T01:04:34;100838.66;;;5.92;100.00
21357;BME280;10836;53.068;18.234;2022-09-13T01:07:05;100838.28;;;5.88;100.00
21357;BME280;10836;53.068;18.234;2022-09-13T01:09:38;100829.72;;;5.80;100.00
21357;BME280;10836;53.068;18.234;2022-09-13T01:12:31;100830.06;;;5.83;100.00
21357;BME280;10836;53.068;18.234;2022-09-13T01:15:03;100829.56;;;5.86;100.00
21357;BME280;10836;53.068;18.234;2022-09-13T01:17:32;100828.19;;;5.72;100.00
21357;BME280;10836;53.068;18.234;2022-09-13T01:20:00;100825.22;;;5.85;100.00
21357;BME280;10836;53.068;18.234;2022-09-13T01:22:55;100823.81;;;5.83;100.00
21357;BME280;10836;53.068;18.234;2022-09-13T01:25:36;100822.91;;;5.65;100.00
21357;BME280;10836;53.068;18.234;2022-09-13T01:31:05;100824.00;;;5.53;100.00
21357;BME280;10836;53.068;18.234;2022-09-13T01:37:07;100823.03;;;5.59;100.00
21357;BME280;10836;53.068;18.234;2022-09-13T01:39:16;100817.75;;;5.52;100.00
21357;BME280;10836;53.068;18.234;2022-09-13T01:47:28;100820.22;;;5.30;100.00
21357;BME280;10836;53.068;18.234;2022-09-13T01:49:58;100816.22;;;5.21;100.00
21357;BME280;10836;53.068;18.234;2022-09-13T01:55:27;100813.63;;;5.50;100.00
21357;BME280;10836;53.068;18.234;2022-09-13T01:58:16;100811.63;;;5.33;100.00
21357;BME280;10836;53.068;18.234;2022-09-13T02:00:58;100808.81;;;5.40;100.00
21357;BME280;10836;53.068;18.234;2022-09-13T02:03:53;100805.16;;;5.34;100.00
21357;BME280;10836;53.068;18.234;2022-09-13T02:06:26;100801.03;;;5.20;100.00
21357;BME280;10836;53.068;18.234;2022-09-13T02:08:59;100800.69;;;5.28;100.00
21357;BME280;10836;53.068;18.234;2022-09-13T02:11:28;100796.56;;;5.03;100.00
21357;BME280;10836;53.068;18.234;2022-09-13T02:14:05;100801.16;;;5.02;100.00
21357;BME280;10836;53.068;18.234;2022-09-13T02:16:40;100792.47;;;5.00;100.00
21357;BME280;10836;53.068;18.234;2022-09-13T02:19:17;100795.53;;;5.15;100.00
21357;BME280;10836;53.068;18.234;2022-09-13T02:21:50;100788.00;;;5.17;100.00
21357;BME280;10836;53.068;18.234;2022-09-13T02:24:22;100790.94;;;5.16;100.00
21357;BME280;10836;53.068;18.234;2022-09-13T02:26:52;100783.53;;;5.11;100.00
21357;BME280;10836;53.068;18.234;2022-09-13T02:29:23;100784.34;;;5.00;100.00
21357;BME280;10836;53.068;18.234;2022-09-13T02:31:59;100780.56;;;5.01;100.00
21357;BME280;10836;53.068;18.234;2022-09-13T02:34:40;100783.28;;;5.01;100.00
21357;BME280;10836;53.068;18.234;2022-09-13T02:37:09;100773.84;;;4.92;100.00
21357;BME280;10836;53.068;18.234;2022-09-13T02:39:43;100765.97;;;4.90;100.00
21357;BME280;10836;53.068;18.234;2022-09-13T02:42:24;100767.50;;;4.98;100.00
21357;BME280;10836;53.068;18.234;2022-09-13T02:44:54;100763.84;;;4.81;100.00
21357;BME280;10836;53.068;18.234;2022-09-13T02:50:26;100761.97;;;4.93;100.00
21357;BME280;10836;53.068;18.234;2022-09-13T02:53:03;100751.16;;;4.93;100.00
21357;BME280;10836;53.068;18.234;2022-09-13T02:55:40;100751.38;;;4.91;100.00
21357;BME280;10836;53.068;18.234;2022-09-13T02:58:24;100748.34;;;4.99;100.00
21357;BME280;10836;53.068;18.234;2022-09-13T03:00:54;100748.44;;;4.93;100.00
21357;BME280;10836;53.068;18.234;2022-09-13T03:03:23;100735.03;;;4.98;100.00
21357;BME280;10836;53.068;18.234;2022-09-13T03:05:49;100746.34;;;4.95;100.00
21357;BME280;10836;53.068;18.234;2022-09-13T03:08:17;100745.28;;;4.73;100.00
21357;BME280;10836;53.068;18.234;2022-09-13T03:15:59;100722.78;;;4.60;100.00
21357;BME280;10836;53.068;18.234;2022-09-13T03:18:56;100719.75;;;4.68;100.00
21357;BME280;10836;53.068;18.234;2022-09-13T03:22:05;100719.03;;;4.61;100.00
21357;BME280;10836;53.068;18.234;2022-09-13T03:24:51;100708.47;;;4.72;100.00
21357;BME280;10836;53.068;18.234;2022-09-13T03:27:32;100715.03;;;4.64;100.00
21357;BME280;10836;53.068;18.234;2022-09-13T03:30:05;100711.16;;;4.60;100.00
21357;BME280;10836;53.068;18.234;2022-09-13T03:35:43;100686.47;;;4.68;100.00
21357;BME280;10836;53.068;18.234;2022-09-13T03:38:25;100685.66;;;4.67;100.00
21357;BME280;10836;53.068;18.234;2022-09-13T03:41:07;100687.97;;;4.52;100.00
21357;BME280;10836;53.068;18.234;2022-09-13T03:43:40;100682.13;;;4.67;100.00
21357;BME280;10836;53.068;18.234;2022-09-13T03:46:41;100683.03;;;4.96;100.00
21357;BME280;10836;53.068;18.234;2022-09-13T03:49:13;100687.97;;;5.11;100.00
21357;BME280;10836;53.068;18.234;2022-09-13T03:51:43;100683.13;;;5.13;100.00
21357;BME280;10836;53.068;18.234;2022-09-13T03:54:21;100684.91;;;5.07;100.00
21357;BME280;10836;53.068;18.234;2022-09-13T03:57:07;100680.09;;;4.86;100.00
21357;BME280;10836;53.068;18.234;2022-09-13T03:59:38;100674.91;;;4.96;100.00
21357;BME280;10836;53.068;18.234;2022-09-13T04:02:07;100670.91;;;4.87;100.00
21357;BME280;10836;53.068;18.234;2022-09-13T04:04:38;100665.78;;;4.62;100.00
21357;BME280;10836;53.068;18.234;2022-09-13T04:07:06;100671.75;;;4.41;100.00
21357;BME280;10836;53.068;18.234;2022-09-13T04:09:33;100680.69;;;4.41;100.00
21357;BME280;10836;53.068;18.234;2022-09-13T04:12:00;100671.03;;;4.45;100.00
21357;BME280;10836;53.068;18.234;2022-09-13T04:14:27;100676.09;;;4.53;100.00
21357;BME280;10836;53.068;18.234;2022-09-13T04:16:55;100673.88;;;4.50;100.00
21357;BME280;10836;53.068;18.234;2022-09-13T04:19:23;100663.06;;;4.50;100.00
21357;BME280;10836;53.068;18.234;2022-09-13T04:21:52;100659.78;;;4.72;100.00
21357;BME280;10836;53.068;18.234;2022-09-13T04:24:22;100651.78;;;4.53;100.00
21357;BME280;10836;53.068;18.234;2022-09-13T04:26:50;100656.25;;;4.59;100.00
21357;BME280;10836;53.068;18.234;2022-09-13T04:29:17;100653.44;;;4.66;100.00
21357;BME280;10836;53.068;18.234;2022-09-13T04:31:45;100649.91;;;4.65;100.00
21357;BME280;10836;53.068;18.234;2022-09-13T04:34:12;100652.72;;;4.71;100.00
21357;BME280;10836;53.068;18.234;2022-09-13T04:36:39;100664.72;;;4.75;100.00
21357;BME280;10836;53.068;18.234;2022-09-13T04:39:06;100666.22;;;4.94;100.00
21357;BME280;10836;53.068;18.234;2022-09-13T04:41:33;100666.31;;;4.99;100.00
21357;BME280;10836;53.068;18.234;2022-09-13T04:44:01;100669.97;;;5.05;100.00
21357;BME280;10836;53.068;18.234;2022-09-13T04:46:28;100671.41;;;5.35;100.00
21357;BME280;10836;53.068;18.234;2022-09-13T04:48:55;100668.53;;;5.54;100.00
21357;BME280;10836;53.068;18.234;2022-09-13T04:51:22;100673.28;;;5.75;100.00
21357;BME280;10836;53.068;18.234;2022-09-13T04:53:53;100660.63;;;5.92;100.00
21357;BME280;10836;53.068;18.234;2022-09-13T04:56:21;100664.50;;;5.96;100.00
21357;BME280;10836;53.068;18.234;2022-09-13T04:58:53;100662.94;;;6.00;100.00
21357;BME280;10836;53.068;18.234;2022-09-13T05:01:22;100658.00;;;5.97;100.00
21357;BME280;10836;53.068;18.234;2022-09-13T05:03:53;100657.03;;;6.04;100.00
21357;BME280;10836;53.068;18.234;2022-09-13T05:06:22;100655.97;;;6.21;100.00
21357;BME280;10836;53.068;18.234;2022-09-13T05:08:51;100660.50;;;6.32;100.00
21357;BME280;10836;53.068;18.234;2022-09-13T05:11:22;100659.34;;;6.45;100.00
21357;BME280;10836;53.068;18.234;2022-09-13T05:13:53;100653.22;;;6.72;100.00
21357;BME280;10836;53.068;18.234;2022-09-13T05:16:23;100654.69;;;6.79;100.00
21357;BME280;10836;53.068;18.234;2022-09-13T05:18:51;100649.44;;;6.73;100.00
21357;BME280;10836;53.068;18.234;2022-09-13T05:21:19;100642.34;;;7.10;100.00
21357;BME280;10836;53.068;18.234;2022-09-13T05:23:50;100643.41;;;7.53;100.00
21357;BME280;10836;53.068;18.234;2022-09-13T05:26:19;100645.31;;;7.79;100.00
21357;BME280;10836;53.068;18.234;2022-09-13T05:28:46;100641.03;;;7.88;100.00
21357;BME280;10836;53.068;18.234;2022-09-13T05:33:43;100642.78;;;7.99;100.00
21357;BME280;10836;53.068;18.234;2022-09-13T05:36:10;100631.03;;;8.26;100.00
21357;BME280;10836;53.068;18.234;2022-09-13T05:38:37;100625.63;;;8.63;100.00
21357;BME280;10836;53.068;18.234;2022-09-13T05:41:05;100622.72;;;8.80;100.00
21357;BME280;10836;53.068;18.234;2022-09-13T05:43:34;100634.31;;;9.02;100.00
21357;BME280;10836;53.068;18.234;2022-09-13T05:46:02;100623.44;;;9.07;100.00
21357;BME280;10836;53.068;18.234;2022-09-13T05:48:31;100622.69;;;9.32;100.00
21357;BME280;10836;53.068;18.234;2022-09-13T05:51:24;100621.72;;;9.68;100.00
21357;BME280;10836;53.068;18.234;2022-09-13T05:53:52;100612.75;;;9.78;99.26
21357;BME280;10836;53.068;18.234;2022-09-13T05:56:25;100614.66;;;10.08;97.98
21357;BME280;10836;53.068;18.234;2022-09-13T05:58:53;100608.44;;;10.33;98.07
21357;BME280;10836;53.068;18.234;2022-09-13T06:01:23;100598.84;;;10.56;96.33
21357;BME280;10836;53.068;18.234;2022-09-13T06:03:54;100606.16;;;10.81;96.40
21357;BME280;10836;53.068;18.234;2022-09-13T06:06:22;100600.09;;;10.94;96.03
21357;BME280;10836;53.068;18.234;2022-09-13T06:08:54;100597.56;;;11.13;95.40
21357;BME280;10836;53.068;18.234;2022-09-13T06:11:21;100596.50;;;11.09;97.65
21357;BME280;10836;53.068;18.234;2022-09-13T06:13:49;100600.00;;;11.24;97.51
21357;BME280;10836;53.068;18.234;2022-09-13T06:16:16;100608.09;;;11.40;96.33
21357;BME280;10836;53.068;18.234;2022-09-13T06:18:44;100607.41;;;11.68;95.71
21357;BME280;10836;53.068;18.234;2022-09-13T06:21:16;100607.56;;;11.87;94.41
21357;BME280;10836;53.068;18.234;2022-09-13T06:23:47;100601.03;;;12.17;94.21
21357;BME280;10836;53.068;18.234;2022-09-13T06:26:16;100589.34;;;12.40;93.33
21357;BME280;10836;53.068;18.234;2022-09-13T06:28:49;100599.09;;;12.51;92.18
21357;BME280;10836;53.068;18.234;2022-09-13T06:31:19;100591.13;;;12.55;93.71
21357;BME280;10836;53.068;18.234;2022-09-13T06:33:46;100589.50;;;12.78;92.95
21357;BME280;10836;53.068;18.234;2022-09-13T06:36:16;100586.00;;;12.96;92.39
21357;BME280;10836;53.068;18.234;2022-09-13T06:38:47;100587.72;;;12.92;92.75
21357;BME280;10836;53.068;18.234;2022-09-13T06:41:19;100596.06;;;13.00;94.13
21357;BME280;10836;53.068;18.234;2022-09-13T06:43:58;100592.22;;;13.02;93.94
21357;BME280;10836;53.068;18.234;2022-09-13T06:46:27;100593.81;;;13.50;93.31
21357;BME280;10836;53.068;18.234;2022-09-13T06:48:59;100597.22;;;13.98;91.97
21357;BME280;10836;53.068;18.234;2022-09-13T06:51:27;100592.09;;;14.43;89.23
21357;BME280;10836;53.068;18.234;2022-09-13T06:53:56;100587.47;;;14.85;88.22
21357;BME280;10836;53.068;18.234;2022-09-13T06:56:28;100598.06;;;15.32;86.56
21357;BME280;10836;53.068;18.234;2022-09-13T06:58:59;100581.91;;;15.67;84.86
21357;BME280;10836;53.068;18.234;2022-09-13T07:01:32;100578.13;;;15.99;85.31
21357;BME280;10836;53.068;18.234;2022-09-13T07:04:08;100576.81;;;15.60;86.15
21357;BME280;10836;53.068;18.234;2022-09-13T07:06:38;100586.16;;;15.73;86.34
21357;BME280;10836;53.068;18.234;2022-09-13T07:09:07;100579.59;;;16.05;86.24
21357;BME280;10836;53.068;18.234;2022-09-13T07:11:37;100579.81;;;15.86;85.18
21357;BME280;10836;53.068;18.234;2022-09-13T07:14:05;100573.69;;;15.89;87.71
21357;BME280;10836;53.068;18.234;2022-09-13T07:16:36;100568.03;;;15.72;87.58
21357;BME280;10836;53.068;18.234;2022-09-13T07:19:06;100569.16;;;16.16;88.15
21357;BME280;10836;53.068;18.234;2022-09-13T07:21:34;100561.91;;;16.20;85.88
21357;BME280;10836;53.068;18.234;2022-09-13T07:24:02;100561.09;;;16.50;86.30
21357;BME280;10836;53.068;18.234;2022-09-13T07:26:30;100559.66;;;16.84;82.33
21357;BME280;10836;53.068;18.234;2022-09-13T07:28:59;100559.03;;;16.95;82.25
21357;BME280;10836;53.068;18.234;2022-09-13T07:31:30;100558.81;;;16.75;82.61
21357;BME280;10836;53.068;18.234;2022-09-13T07:33:59;100554.53;;;17.08;81.23
21357;BME280;10836;53.068;18.234;2022-09-13T07:36:28;100553.38;;;17.01;82.10
21357;BME280;10836;53.068;18.234;2022-09-13T07:38:57;100559.06;;;17.04;81.20
21357;BME280;10836;53.068;18.234;2022-09-13T07:41:25;100544.75;;;16.85;82.83
21357;BME280;10836;53.068;18.234;2022-09-13T07:43:53;100552.53;;;16.83;83.25
21357;BME280;10836;53.068;18.234;2022-09-13T07:46:22;100555.03;;;17.10;81.02
21357;BME280;10836;53.068;18.234;2022-09-13T07:48:55;100550.88;;;17.47;78.90
21357;BME280;10836;53.068;18.234;2022-09-13T07:51:24;100556.25;;;17.78;79.71
21357;BME280;10836;53.068;18.234;2022-09-13T07:53:55;100558.63;;;17.19;78.99
21357;BME280;10836;53.068;18.234;2022-09-13T07:56:26;100554.16;;;16.92;80.80
21357;BME280;10836;53.068;18.234;2022-09-13T07:58:53;100553.09;;;17.19;81.59
21357;BME280;10836;53.068;18.234;2022-09-13T08:01:23;100554.41;;;17.13;80.60
21357;BME280;10836;53.068;18.234;2022-09-13T08:03:52;100551.69;;;17.48;80.91
21357;BME280;10836;53.068;18.234;2022-09-13T08:06:20;100554.50;;;18.64;74.62
21357;BME280;10836;53.068;18.234;2022-09-13T08:08:47;100551.34;;;19.62;72.24
21357;BME280;10836;53.068;18.234;2022-09-13T08:11:23;100540.13;;;19.58;70.60
21357;BME280;10836;53.068;18.234;2022-09-13T08:13:51;100539.72;;;19.89;69.82
21357;BME280;10836;53.068;18.234;2022-09-13T08:16:20;100535.56;;;20.98;64.82
21357;BME280;10836;53.068;18.234;2022-09-13T08:18:54;100516.81;;;21.07;66.00
21357;BME280;10836;53.068;18.234;2022-09-13T08:21:24;100517.13;;;21.82;62.57
21357;BME280;10836;53.068;18.234;2022-09-13T08:23:55;100532.31;;;19.81;69.17
21357;BME280;10836;53.068;18.234;2022-09-13T08:26:22;100527.03;;;19.88;67.35
21357;BME280;10836;53.068;18.234;2022-09-13T08:28:55;100528.28;;;20.36;67.92
21357;BME280;10836;53.068;18.234;2022-09-13T08:31:23;100514.25;;;21.27;63.44
21357;BME280;10836;53.068;18.234;2022-09-13T08:33:50;100515.66;;;20.59;66.30
21357;BME280;10836;53.068;18.234;2022-09-13T08:36:19;100512.78;;;20.11;68.51
21357;BME280;10836;53.068;18.234;2022-09-13T08:38:47;100516.34;;;20.44;68.88
21357;BME280;10836;53.068;18.234;2022-09-13T08:55:57;100499.00;;;18.22;78.45
21357;BME280;10836;53.068;18.234;2022-09-13T09:07:18;100488.16;;;20.67;68.35
21357;BME280;10836;53.068;18.234;2022-09-13T09:10:03;100490.47;;;20.77;67.11
21357;BME280;10836;53.068;18.234;2022-09-13T09:12:42;100478.88;;;20.38;69.40
21357;BME280;10836;53.068;18.234;2022-09-13T09:15:17;100477.84;;;19.65;69.98
21357;BME280;10836;53.068;18.234;2022-09-13T09:20:26;100452.97;;;18.64;76.00
21357;BME280;10836;53.068;18.234;2022-09-13T09:22:54;100454.59;;;18.27;78.08
21357;BME280;10836;53.068;18.234;2022-09-13T09:25:23;100440.75;;;18.36;75.57
21357;BME280;10836;53.068;18.234;2022-09-13T09:27:51;100442.28;;;18.16;77.39
21357;BME280;10836;53.068;18.234;2022-09-13T09:30:20;100437.97;;;17.89;79.15
21357;BME280;10836;53.068;18.234;2022-09-13T09:36:37;100412.66;;;17.78;79.27
21357;BME280;10836;53.068;18.234;2022-09-13T09:39:10;100425.47;;;17.91;79.11
21357;BME280;10836;53.068;18.234;2022-09-13T09:41:37;100402.56;;;17.82;79.41
21357;BME280;10836;53.068;18.234;2022-09-13T09:44:18;100408.09;;;17.82;79.99
21357;BME280;10836;53.068;18.234;2022-09-13T09:46:49;100410.03;;;17.90;79.76
21357;BME280;10836;53.068;18.234;2022-09-13T09:49:38;100415.06;;;17.88;79.20
21357;BME280;10836;53.068;18.234;2022-09-13T09:52:31;100415.28;;;17.66;79.97
21357;BME280;10836;53.068;18.234;2022-09-13T09:55:10;100421.13;;;17.39;82.27
21357;BME280;10836;53.068;18.234;2022-09-13T09:58:00;100412.38;;;17.37;82.58
21357;BME280;10836;53.068;18.234;2022-09-13T10:00:30;100425.06;;;17.20;81.96
21357;BME280;10836;53.068;18.234;2022-09-13T10:03:00;100424.88;;;17.17;83.08
21357;BME280;10836;53.068;18.234;2022-09-13T10:05:28;100424.06;;;17.08;83.31
21357;BME280;10836;53.068;18.234;2022-09-13T10:08:01;100410.09;;;17.04;84.13
21357;BME280;10836;53.068;18.234;2022-09-13T10:10:36;100409.78;;;16.97;83.24
21357;BME280;10836;53.068;18.234;2022-09-13T10:13:06;100406.53;;;16.95;83.77
21357;BME280;10836;53.068;18.234;2022-09-13T10:15:34;100415.28;;;16.97;83.74
21357;BME280;10836;53.068;18.234;2022-09-13T10:23:46;100394.84;;;17.15;86.66
21357;BME280;10836;53.068;18.234;2022-09-13T10:26:18;100395.66;;;17.16;89.04
21357;BME280;10836;53.068;18.234;2022-09-13T10:29:27;100383.47;;;16.91;89.47
21357;BME280;10836;53.068;18.234;2022-09-13T10:31:49;100366.94;;;17.00;88.35
21357;BME280;10836;53.068;18.234;2022-09-13T10:34:22;100377.31;;;17.11;88.26
21357;BME280;10836;53.068;18.234;2022-09-13T10:37:03;100367.59;;;17.05;88.29
21357;BME280;10836;53.068;18.234;2022-09-13T10:39:34;100350.34;;;17.43;87.77
21357;BME280;10836;53.068;18.234;2022-09-13T10:42:07;100353.22;;;17.72;85.60
21357;BME280;10836;53.068;18.234;2022-09-13T10:44:50;100346.41;;;18.37;81.31
21357;BME280;10836;53.068;18.234;2022-09-13T10:47:22;100336.31;;;18.41;77.62
21357;BME280;10836;53.068;18.234;2022-09-13T10:49:54;100350.94;;;18.92;76.21
21357;BME280;10836;53.068;18.234;2022-09-13T10:52:32;100349.44;;;18.74;75.33
21357;BME280;10836;53.068;18.234;2022-09-13T10:57:51;100346.59;;;19.57;70.26
21357;BME280;10836;53.068;18.234;2022-09-13T11:00:37;100346.63;;;19.03;70.28
21357;BME280;10836;53.068;18.234;2022-09-13T11:08:46;100354.41;;;19.43;70.56
21357;BME280;10836;53.068;18.234;2022-09-13T11:16:52;100347.50;;;19.49;69.62
21357;BME280;10836;53.068;18.234;2022-09-13T11:28:03;100335.44;;;19.33;72.26
21357;BME280;10836;53.068;18.234;2022-09-13T11:30:58;100331.75;;;19.08;73.01
21357;BME280;10836;53.068;18.234;2022-09-13T11:55:38;100286.66;;;19.07;73.20
21357;BME280;10836;53.068;18.234;2022-09-13T11:58:15;100286.31;;;18.97;73.79
21357;BME280;10836;53.068;18.234;2022-09-13T12:00:47;100282.94;;;18.91;72.25
21357;BME280;10836;53.068;18.234;2022-09-13T12:03:26;100284.00;;;18.78;71.85
21357;BME280;10836;53.068;18.234;2022-09-13T12:06:09;100282.88;;;18.79;71.72
21357;BME280;10836;53.068;18.234;2022-09-13T12:08:42;100288.91;;;18.60;74.43
21357;BME280;10836;53.068;18.234;2022-09-13T12:11:18;100292.63;;;18.55;73.44
21357;BME280;10836;53.068;18.234;2022-09-13T12:13:56;100287.41;;;18.33;74.62
21357;BME280;10836;53.068;18.234;2022-09-13T12:16:29;100283.16;;;18.15;76.34
21357;BME280;10836;53.068;18.234;2022-09-13T12:19:06;100276.44;;;18.45;74.78
21357;BME280;10836;53.068;18.234;2022-09-13T12:21:39;100274.44;;;18.54;75.13
21357;BME280;10836;53.068;18.234;2022-09-13T12:24:21;100270.78;;;18.42;73.79
21357;BME280;10836;53.068;18.234;2022-09-13T12:26:53;100278.19;;;18.29;73.96
21357;BME280;10836;53.068;18.234;2022-09-13T12:29:30;100265.09;;;18.38;74.18
21357;BME280;10836;53.068;18.234;2022-09-13T12:32:01;100271.59;;;18.42;74.16
21357;BME280;10836;53.068;18.234;2022-09-13T12:34:59;100266.78;;;18.60;73.83
21357;BME280;10836;53.068;18.234;2022-09-13T12:37:56;100260.53;;;18.63;73.42
21357;BME280;10836;53.068;18.234;2022-09-13T12:41:06;100252.97;;;18.51;73.87
21357;BME280;10836;53.068;18.234;2022-09-13T12:43:44;100248.34;;;18.64;72.97
21357;BME280;10836;53.068;18.234;2022-09-13T12:58:25;100227.75;;;18.74;74.92
21357;BME280;10836;53.068;18.234;2022-09-13T13:03:29;100222.88;;;18.91;77.23
21357;BME280;10836;53.068;18.234;2022-09-13T13:08:34;100197.94;;;18.79;78.78
21357;BME280;10836;53.068;18.234;2022-09-13T13:11:07;100196.50;;;19.06;78.34
21357;BME280;10836;53.068;18.234;2022-09-13T13:13:42;100208.03;;;19.08;76.05
21357;BME280;10836;53.068;18.234;2022-09-13T13:19:00;100194.91;;;19.05;75.88
21357;BME280;10836;53.068;18.234;2022-09-13T13:21:36;100189.16;;;19.22;74.10
21357;BME280;10836;53.068;18.234;2022-09-13T13:26:47;100192.00;;;19.14;75.43
21357;BME280;10836;53.068;18.234;2022-09-13T13:29:20;100190.41;;;19.13;74.47
21357;BME280;10836;53.068;18.234;2022-09-13T13:39:42;100177.72;;;18.67;75.63
21357;BME280;10836;53.068;18.234;2022-09-13T13:49:40;100164.59;;;18.76;75.73
21357;BME280;10836;53.068;18.234;2022-09-13T13:54:59;100149.75;;;18.80;76.51
21357;BME280;10836;53.068;18.234;2022-09-13T13:57:31;100144.59;;;18.91;74.51
21357;BME280;10836;53.068;18.234;2022-09-13T14:05:32;100123.22;;;18.67;76.09
21357;BME280;10836;53.068;18.234;2022-09-13T14:21:40;100117.69;;;18.67;76.21
21357;BME280;10836;53.068;18.234;2022-09-13T14:24:14;100112.50;;;18.66;75.56
21357;BME280;10836;53.068;18.234;2022-09-13T14:26:43;100108.34;;;18.72;75.44
21357;BME280;10836;53.068;18.234;2022-09-13T14:29:16;100107.59;;;18.96;75.21
21357;BME280;10836;53.068;18.234;2022-09-13T14:31:48;100097.34;;;18.96;75.00
21357;BME280;10836;53.068;18.234;2022-09-13T14:34:30;100101.25;;;19.07;74.93
21357;BME280;10836;53.068;18.234;2022-09-13T14:37:00;100091.31;;;18.82;76.00
21357;BME280;10836;53.068;18.234;2022-09-13T14:39:29;100092.44;;;18.69;75.99
21357;BME280;10836;53.068;18.234;2022-09-13T14:42:15;100093.03;;;18.74;76.11
21357;BME280;10836;53.068;18.234;2022-09-13T14:44:43;100089.66;;;18.56;75.91
21357;BME280;10836;53.068;18.234;2022-09-13T14:47:21;100092.22;;;18.62;75.59
21357;BME280;10836;53.068;18.234;2022-09-13T14:49:59;100093.69;;;18.59;76.65
21357;BME280;10836;53.068;18.234;2022-09-13T14:52:33;100087.91;;;18.52;77.15
21357;BME280;10836;53.068;18.234;2022-09-13T14:55:10;100081.09;;;18.49;77.85
21357;BME280;10836;53.068;18.234;2022-09-13T14:57:43;100082.19;;;18.36;78.16
21357;BME280;10836;53.068;18.234;2022-09-13T15:02:48;100079.94;;;18.50;78.53
21357;BME280;10836;53.068;18.234;2022-09-13T15:05:18;100074.72;;;18.37;79.59
21357;BME280;10836;53.068;18.234;2022-09-13T15:07:45;100079.44;;;18.36;79.02
21357;BME280;10836;53.068;18.234;2022-09-13T15:13:07;100104.06;;;18.29;82.04
21357;BME280;10836;53.068;18.234;2022-09-13T15:15:37;100101.03;;;18.22;83.83
21357;BME280;10836;53.068;18.234;2022-09-13T15:20:48;100103.59;;;18.27;84.97
21357;BME280;10836;53.068;18.234;2022-09-13T15:23:19;100106.72;;;18.05;86.18
21357;BME280;10836;53.068;18.234;2022-09-13T15:25:49;100114.53;;;18.03;88.58
21357;BME280;10836;53.068;18.234;2022-09-13T15:28:26;100114.94;;;17.92;88.97
21357;BME280;10836;53.068;18.234;2022-09-13T15:30:55;100106.56;;;17.80;91.13
21357;BME280;10836;53.068;18.234;2022-09-13T15:33:32;100099.75;;;17.57;92.33
21357;BME280;10836;53.068;18.234;2022-09-13T15:41:36;100078.72;;;17.44;95.25
21357;BME280;10836;53.068;18.234;2022-09-13T15:44:07;100080.69;;;17.64;92.26
21357;BME280;10836;53.068;18.234;2022-09-13T15:46:45;100081.38;;;17.61;93.71
21357;BME280;10836;53.068;18.234;2022-09-13T15:49:17;100072.59;;;17.59;94.95
21357;BME280;10836;53.068;18.234;2022-09-13T15:51:46;100071.19;;;17.53;95.79
21357;BME280;10836;53.068;18.234;2022-09-13T15:54:14;100070.91;;;17.46;97.40
21357;BME280;10836;53.068;18.234;2022-09-13T15:56:46;100079.19;;;17.46;98.81
21357;BME280;10836;53.068;18.234;2022-09-13T15:59:16;100085.94;;;17.57;99.04
21357;BME280;10836;53.068;18.234;2022-09-13T16:01:44;100084.19;;;17.52;98.80
21357;BME280;10836;53.068;18.234;2022-09-13T16:04:11;100087.78;;;17.44;100.00
21357;BME280;10836;53.068;18.234;2022-09-13T16:06:38;100088.47;;;17.41;100.00
21357;BME280;10836;53.068;18.234;2022-09-13T16:09:20;100090.56;;;17.44;100.00
21357;BME280;10836;53.068;18.234;2022-09-13T16:11:48;100082.53;;;17.31;100.00
21357;BME280;10836;53.068;18.234;2022-09-13T16:14:16;100074.34;;;17.13;100.00